sensor_id;sensor_type;location;lat;lon;timestamp;P1;durP1;ratioP1;P2;durP2;ratioP2
44428;SDS011;30134;47.866;-4.222;2023-04-06T00:00:00;2.78;;;2.15;;
44428;SDS011;30134;47.866;-4.222;2023-04-06T00:02:29;3.03;;;2.10;;
44428;SDS011;30134;47.866;-4.222;2023-04-06T00:04:55;2.35;;;2.10;;
44428;SDS011;30134;47.866;-4.222;2023-04-06T00:07:22;3.05;;;2.03;;
44428;SDS011;30134;47.866;-4.222;2023-04-06T00:09:48;2.03;;;1.83;;
44428;SDS011;30134;47.866;-4.222;2023-04-06T00:12:14;2.38;;;1.75;;
44428;SDS011;30134;47.866;-4.222;2023-04-06T00:14:40;2.90;;;1.98;;
44428;SDS011;30134;47.866;-4.222;2023-04-06T00:17:06;2.35;;;1.80;;
44428;SDS011;30134;47.866;-4.222;2023-04-06T00:19:33;2.17;;;1.90;;
44428;SDS011;30134;47.866;-4.222;2023-04-06T00:21:59;1.65;;;1.45;;
44428;SDS011;30134;47.866;-4.222;2023-04-06T00:24:27;2.05;;;1.70;;
44428;SDS011;30134;47.866;-4.222;2023-04-06T00:27:01;2.33;;;1.80;;
44428;SDS011;30134;47.866;-4.222;2023-04-06T00:29:41;2.13;;;1.70;;
44428;SDS011;30134;47.866;-4.222;2023-04-06T00:32:09;2.22;;;1.50;;
44428;SDS011;30134;47.866;-4.222;2023-04-06T00:34:35;1.70;;;1.60;;
44428;SDS011;30134;47.866;-4.222;2023-04-06T00:37:01;2.55;;;1.67;;
44428;SDS011;30134;47.866;-4.222;2023-04-06T00:39:27;2.65;;;1.55;;
44428;SDS011;30134;47.866;-4.222;2023-04-06T00:41:53;2.10;;;1.80;;
44428;SDS011;30134;47.866;-4.222;2023-04-06T00:44:21;1.90;;;1.50;;
44428;SDS011;30134;47.866;-4.222;2023-04-06T00:46:47;2.05;;;1.70;;
44428;SDS011;30134;47.866;-4.222;2023-04-06T00:49:14;1.63;;;1.50;;
44428;SDS011;30134;47.866;-4.222;2023-04-06T00:51:40;1.63;;;1.52;;
44428;SDS011;30134;47.866;-4.222;2023-04-06T00:54:06;2.05;;;1.70;;
44428;SDS011;30134;47.866;-4.222;2023-04-06T00:56:32;2.20;;;1.80;;
44428;SDS011;30134;47.866;-4.222;2023-04-06T00:58:58;1.70;;;1.50;;
44428;SDS011;30134;47.866;-4.222;2023-04-06T01:01:24;2.10;;;1.50;;
44428;SDS011;30134;47.866;-4.222;2023-04-06T01:03:51;1.75;;;1.42;;
44428;SDS011;30134;47.866;-4.222;2023-04-06T01:06:24;1.92;;;1.55;;
44428;SDS011;30134;47.866;-4.222;2023-04-06T01:08:50;1.77;;;1.35;;
44428;SDS011;30134;47.866;-4.222;2023-04-06T01:11:17;1.63;;;1.48;;
44428;SDS011;30134;47.866;-4.222;2023-04-06T01:13:46;2.05;;;1.50;;
44428;SDS011;30134;47.866;-4.222;2023-04-06T01:16:12;1.88;;;1.50;;
44428;SDS011;30134;47.866;-4.222;2023-04-06T01:18:38;1.92;;;1.50;;
44428;SDS011;30134;47.866;-4.222;2023-04-06T01:21:04;2.00;;;1.55;;
44428;SDS011;30134;47.866;-4.222;2023-04-06T01:23:30;2.50;;;1.60;;
44428;SDS011;30134;47.866;-4.222;2023-04-06T01:25:56;2.28;;;1.40;;
44428;SDS011;30134;47.866;-4.222;2023-04-06T01:28:22;2.15;;;1.45;;
44428;SDS011;30134;47.866;-4.222;2023-04-06T01:30:49;1.65;;;1.45;;
44428;SDS011;30134;47.866;-4.222;2023-04-06T01:33:15;1.75;;;1.50;;
44428;SDS011;30134;47.866;-4.222;2023-04-06T01:35:40;1.33;;;1.20;;
44428;SDS011;30134;47.866;-4.222;2023-04-06T01:38:07;2.25;;;1.42;;
44428;SDS011;30134;47.866;-4.222;2023-04-06T01:40:33;1.63;;;1.35;;
44428;SDS011;30134;47.866;-4.222;2023-04-06T01:42:59;1.65;;;1.33;;
44428;SDS011;30134;47.866;-4.222;2023-04-06T01:45:25;1.38;;;1.10;;
44428;SDS011;30134;47.866;-4.222;2023-04-06T01:47:51;1.70;;;1.45;;
44428;SDS011;30134;47.866;-4.222;2023-04-06T01:50:17;1.45;;;1.27;;
44428;SDS011;30134;47.866;-4.222;2023-04-06T01:52:43;1.52;;;1.20;;
44428;SDS011;30134;47.866;-4.222;2023-04-06T01:55:09;2.17;;;1.30;;
44428;SDS011;30134;47.866;-4.222;2023-04-06T01:57:35;1.63;;;1.20;;
44428;SDS011;30134;47.866;-4.222;2023-04-06T02:00:01;2.50;;;1.42;;
44428;SDS011;30134;47.866;-4.222;2023-04-06T02:02:28;2.05;;;1.33;;
44428;SDS011;30134;47.866;-4.222;2023-04-06T02:04:54;1.58;;;1.40;;
44428;SDS011;30134;47.866;-4.222;2023-04-06T02:07:20;1.55;;;1.23;;
44428;SDS011;30134;47.866;-4.222;2023-04-06T02:09:46;1.30;;;1.20;;
44428;SDS011;30134;47.866;-4.222;2023-04-06T02:12:12;2.33;;;1.50;;
44428;SDS011;30134;47.866;-4.222;2023-04-06T02:14:38;1.50;;;1.25;;
44428;SDS011;30134;47.866;-4.222;2023-04-06T02:17:04;1.77;;;1.30;;
44428;SDS011;30134;47.866;-4.222;2023-04-06T02:19:30;1.67;;;1.08;;
44428;SDS011;30134;47.866;-4.222;2023-04-06T02:21:56;2.70;;;1.25;;
44428;SDS011;30134;47.866;-4.222;2023-04-06T02:24:23;1.95;;;1.20;;
44428;SDS011;30134;47.866;-4.222;2023-04-06T02:26:49;1.75;;;1.40;;
44428;SDS011;30134;47.866;-4.222;2023-04-06T02:29:15;2.50;;;1.20;;
44428;SDS011;30134;47.866;-4.222;2023-04-06T02:31:41;1.30;;;1.15;;
44428;SDS011;30134;47.866;-4.222;2023-04-06T02:34:07;1.38;;;1.13;;
44428;SDS011;30134;47.866;-4.222;2023-04-06T02:36:36;2.03;;;1.23;;
44428;SDS011;30134;47.866;-4.222;2023-04-06T02:39:02;1.33;;;1.20;;
44428;SDS011;30134;47.866;-4.222;2023-04-06T02:41:28;1.30;;;1.10;;
44428;SDS011;30134;47.866;-4.222;2023-04-06T02:43:54;1.27;;;1.17;;
44428;SDS011;30134;47.866;-4.222;2023-04-06T02:46:23;1.90;;;1.30;;
44428;SDS011;30134;47.866;-4.222;2023-04-06T02:48:49;2.33;;;1.35;;
44428;SDS011;30134;47.866;-4.222;2023-04-06T02:51:15;1.77;;;1.23;;
44428;SDS011;30134;47.866;-4.222;2023-04-06T02:53:41;1.30;;;1.10;;
44428;SDS011;30134;47.866;-4.222;2023-04-06T02:56:07;1.40;;;1.30;;
44428;SDS011;30134;47.866;-4.222;2023-04-06T02:58:34;1.70;;;1.33;;
44428;SDS011;30134;47.866;-4.222;2023-04-06T03:01:00;1.67;;;1.25;;
44428;SDS011;30134;47.866;-4.222;2023-04-06T03:03:26;1.85;;;1.20;;
44428;SDS011;30134;47.866;-4.222;2023-04-06T03:05:52;2.03;;;1.40;;
44428;SDS011;30134;47.866;-4.222;2023-04-06T03:08:19;1.85;;;1.10;;
44428;SDS011;30134;47.866;-4.222;2023-04-06T03:10:45;2.25;;;1.33;;
44428;SDS011;30134;47.866;-4.222;2023-04-06T03:13:11;2.20;;;1.40;;
44428;SDS011;30134;47.866;-4.222;2023-04-06T03:15:37;2.53;;;1.30;;
44428;SDS011;30134;47.866;-4.222;2023-04-06T03:18:03;2.25;;;1.50;;
44428;SDS011;30134;47.866;-4.222;2023-04-06T03:20:29;2.05;;;1.40;;
44428;SDS011;30134;47.866;-4.222;2023-04-06T03:22:55;1.58;;;1.20;;
44428;SDS011;30134;47.866;-4.222;2023-04-06T03:25:21;1.58;;;1.33;;
44428;SDS011;30134;47.866;-4.222;2023-04-06T03:27:47;1.73;;;1.35;;
44428;SDS011;30134;47.866;-4.222;2023-04-06T03:30:13;3.28;;;1.75;;
44428;SDS011;30134;47.866;-4.222;2023-04-06T03:32:41;2.25;;;1.30;;
44428;SDS011;30134;47.866;-4.222;2023-04-06T03:35:11;2.20;;;1.60;;
44428;SDS011;30134;47.866;-4.222;2023-04-06T03:37:37;1.63;;;1.50;;
44428;SDS011;30134;47.866;-4.222;2023-04-06T03:40:03;3.15;;;1.48;;
44428;SDS011;30134;47.866;-4.222;2023-04-06T03:42:33;2.15;;;1.55;;
44428;SDS011;30134;47.866;-4.222;2023-04-06T03:44:59;2.40;;;1.60;;
44428;SDS011;30134;47.866;-4.222;2023-04-06T03:47:25;2.33;;;1.33;;
44428;SDS011;30134;47.866;-4.222;2023-04-06T03:49:51;1.63;;;1.42;;
44428;SDS011;30134;47.866;-4.222;2023-04-06T03:52:17;1.52;;;1.27;;
44428;SDS011;30134;47.866;-4.222;2023-04-06T03:54:43;2.33;;;1.40;;
44428;SDS011;30134;47.866;-4.222;2023-04-06T03:57:09;1.90;;;1.35;;
44428;SDS011;30134;47.866;-4.222;2023-04-06T03:59:35;2.20;;;1.25;;
44428;SDS011;30134;47.866;-4.222;2023-04-06T04:02:01;2.38;;;1.50;;
44428;SDS011;30134;47.866;-4.222;2023-04-06T04:04:27;3.85;;;1.73;;
44428;SDS011;30134;47.866;-4.222;2023-04-06T04:06:53;3.50;;;1.70;;
44428;SDS011;30134;47.866;-4.222;2023-04-06T04:09:19;2.67;;;1.70;;
44428;SDS011;30134;47.866;-4.222;2023-04-06T04:11:45;3.25;;;1.70;;
44428;SDS011;30134;47.866;-4.222;2023-04-06T04:14:12;2.53;;;1.58;;
44428;SDS011;30134;47.866;-4.222;2023-04-06T04:16:41;2.67;;;1.63;;
44428;SDS011;30134;47.866;-4.222;2023-04-06T04:19:07;2.35;;;1.38;;
44428;SDS011;30134;47.866;-4.222;2023-04-06T04:21:33;1.70;;;1.35;;
44428;SDS011;30134;47.866;-4.222;2023-04-06T04:24:08;4.28;;;1.70;;
44428;SDS011;30134;47.866;-4.222;2023-04-06T04:26:34;2.33;;;1.42;;
44428;SDS011;30134;47.866;-4.222;2023-04-06T04:29:00;2.08;;;1.50;;
44428;SDS011;30134;47.866;-4.222;2023-04-06T04:31:26;3.83;;;1.67;;
44428;SDS011;30134;47.866;-4.222;2023-04-06T04:33:59;3.97;;;1.50;;
44428;SDS011;30134;47.866;-4.222;2023-04-06T04:36:25;1.83;;;1.50;;
44428;SDS011;30134;47.866;-4.222;2023-04-06T04:38:52;4.15;;;1.70;;
44428;SDS011;30134;47.866;-4.222;2023-04-06T04:41:18;2.10;;;1.52;;
44428;SDS011;30134;47.866;-4.222;2023-04-06T04:43:44;2.90;;;1.50;;
44428;SDS011;30134;47.866;-4.222;2023-04-06T04:46:10;2.40;;;1.70;;
44428;SDS011;30134;47.866;-4.222;2023-04-06T04:48:36;2.60;;;1.40;;
44428;SDS011;30134;47.866;-4.222;2023-04-06T04:51:03;2.80;;;1.80;;
44428;SDS011;30134;47.866;-4.222;2023-04-06T04:53:30;1.77;;;1.42;;
44428;SDS011;30134;47.866;-4.222;2023-04-06T04:55:56;2.95;;;1.60;;
44428;SDS011;30134;47.866;-4.222;2023-04-06T04:58:22;3.03;;;1.70;;
44428;SDS011;30134;47.866;-4.222;2023-04-06T05:00:48;2.92;;;1.65;;
44428;SDS011;30134;47.866;-4.222;2023-04-06T05:03:19;3.42;;;1.90;;
44428;SDS011;30134;47.866;-4.222;2023-04-06T05:05:49;2.75;;;1.58;;
44428;SDS011;30134;47.866;-4.222;2023-04-06T05:08:15;2.97;;;1.63;;
44428;SDS011;30134;47.866;-4.222;2023-04-06T05:10:41;2.80;;;1.65;;
44428;SDS011;30134;47.866;-4.222;2023-04-06T05:13:09;2.35;;;1.40;;
44428;SDS011;30134;47.866;-4.222;2023-04-06T05:15:35;2.58;;;1.42;;
44428;SDS011;30134;47.866;-4.222;2023-04-06T05:18:05;3.95;;;1.85;;
44428;SDS011;30134;47.866;-4.222;2023-04-06T05:20:32;2.58;;;1.70;;
44428;SDS011;30134;47.866;-4.222;2023-04-06T05:22:59;3.25;;;1.75;;
44428;SDS011;30134;47.866;-4.222;2023-04-06T05:25:26;2.50;;;1.70;;
44428;SDS011;30134;47.866;-4.222;2023-04-06T05:27:55;3.33;;;1.90;;
44428;SDS011;30134;47.866;-4.222;2023-04-06T05:30:21;2.63;;;1.67;;
44428;SDS011;30134;47.866;-4.222;2023-04-06T05:32:47;2.92;;;1.42;;
44428;SDS011;30134;47.866;-4.222;2023-04-06T05:35:13;2.38;;;1.42;;
44428;SDS011;30134;47.866;-4.222;2023-04-06T05:37:39;3.45;;;1.73;;
44428;SDS011;30134;47.866;-4.222;2023-04-06T05:40:05;3.67;;;1.75;;
44428;SDS011;30134;47.866;-4.222;2023-04-06T05:42:39;2.47;;;1.52;;
44428;SDS011;30134;47.866;-4.222;2023-04-06T05:45:09;2.70;;;1.80;;
44428;SDS011;30134;47.866;-4.222;2023-04-06T05:47:41;2.70;;;1.60;;
44428;SDS011;30134;47.866;-4.222;2023-04-06T05:50:12;2.65;;;1.50;;
44428;SDS011;30134;47.866;-4.222;2023-04-06T05:52:40;3.35;;;1.70;;
44428;SDS011;30134;47.866;-4.222;2023-04-06T05:55:08;3.33;;;1.77;;
44428;SDS011;30134;47.866;-4.222;2023-04-06T05:57:35;3.17;;;1.92;;
44428;SDS011;30134;47.866;-4.222;2023-04-06T06:00:01;3.55;;;1.90;;
44428;SDS011;30134;47.866;-4.222;2023-04-06T06:02:30;4.18;;;1.67;;
44428;SDS011;30134;47.866;-4.222;2023-04-06T06:04:56;3.78;;;1.85;;
44428;SDS011;30134;47.866;-4.222;2023-04-06T06:07:23;2.70;;;1.90;;
44428;SDS011;30134;47.866;-4.222;2023-04-06T06:09:49;3.80;;;1.75;;
44428;SDS011;30134;47.866;-4.222;2023-04-06T06:12:15;4.93;;;2.00;;
44428;SDS011;30134;47.866;-4.222;2023-04-06T06:14:41;3.25;;;1.80;;
44428;SDS011;30134;47.866;-4.222;2023-04-06T06:17:08;5.65;;;2.17;;
44428;SDS011;30134;47.866;-4.222;2023-04-06T06:19:34;2.55;;;1.70;;
44428;SDS011;30134;47.866;-4.222;2023-04-06T06:22:00;5.50;;;2.22;;
44428;SDS011;30134;47.866;-4.222;2023-04-06T06:24:28;4.35;;;2.00;;
44428;SDS011;30134;47.866;-4.222;2023-04-06T06:26:56;2.70;;;1.80;;
44428;SDS011;30134;47.866;-4.222;2023-04-06T06:29:22;3.03;;;1.80;;
44428;SDS011;30134;47.866;-4.222;2023-04-06T06:31:49;3.40;;;1.70;;
44428;SDS011;30134;47.866;-4.222;2023-04-06T06:34:15;3.30;;;1.70;;
44428;SDS011;30134;47.866;-4.222;2023-04-06T06:36:41;3.03;;;1.70;;
44428;SDS011;30134;47.866;-4.222;2023-04-06T06:39:07;6.65;;;2.17;;
44428;SDS011;30134;47.866;-4.222;2023-04-06T06:41:33;2.63;;;1.73;;
44428;SDS011;30134;47.866;-4.222;2023-04-06T06:43:59;3.22;;;1.95;;
44428;SDS011;30134;47.866;-4.222;2023-04-06T06:46:26;3.90;;;2.03;;
44428;SDS011;30134;47.866;-4.222;2023-04-06T06:48:52;3.35;;;1.95;;
44428;SDS011;30134;47.866;-4.222;2023-04-06T06:51:18;3.17;;;1.60;;
44428;SDS011;30134;47.866;-4.222;2023-04-06T06:53:44;2.88;;;1.88;;
44428;SDS011;30134;47.866;-4.222;2023-04-06T06:56:10;4.28;;;2.00;;
44428;SDS011;30134;47.866;-4.222;2023-04-06T06:58:39;3.35;;;1.88;;
44428;SDS011;30134;47.866;-4.222;2023-04-06T07:01:05;3.28;;;1.70;;
44428;SDS011;30134;47.866;-4.222;2023-04-06T07:03:38;4.38;;;1.73;;
44428;SDS011;30134;47.866;-4.222;2023-04-06T07:06:04;2.83;;;1.65;;
44428;SDS011;30134;47.866;-4.222;2023-04-06T07:08:30;3.08;;;1.67;;
44428;SDS011;30134;47.866;-4.222;2023-04-06T07:10:56;3.17;;;1.90;;
44428;SDS011;30134;47.866;-4.222;2023-04-06T07:13:22;2.47;;;1.75;;
44428;SDS011;30134;47.866;-4.222;2023-04-06T07:15:49;2.28;;;1.55;;
44428;SDS011;30134;47.866;-4.222;2023-04-06T07:18:16;3.17;;;1.95;;
44428;SDS011;30134;47.866;-4.222;2023-04-06T07:20:45;3.40;;;1.75;;
44428;SDS011;30134;47.866;-4.222;2023-04-06T07:23:12;4.43;;;2.00;;
44428;SDS011;30134;47.866;-4.222;2023-04-06T07:25:38;2.63;;;1.75;;
44428;SDS011;30134;47.866;-4.222;2023-04-06T07:28:04;2.92;;;1.73;;
44428;SDS011;30134;47.866;-4.222;2023-04-06T07:30:32;3.50;;;1.88;;
44428;SDS011;30134;47.866;-4.222;2023-04-06T07:33:01;3.70;;;1.90;;
44428;SDS011;30134;47.866;-4.222;2023-04-06T07:35:27;2.42;;;1.73;;
44428;SDS011;30134;47.866;-4.222;2023-04-06T07:37:55;4.43;;;1.75;;
44428;SDS011;30134;47.866;-4.222;2023-04-06T07:40:21;3.67;;;1.92;;
44428;SDS011;30134;47.866;-4.222;2023-04-06T07:42:47;3.22;;;1.70;;
44428;SDS011;30134;47.866;-4.222;2023-04-06T07:45:14;3.40;;;2.00;;
44428;SDS011;30134;47.866;-4.222;2023-04-06T07:47:42;2.95;;;1.48;;
44428;SDS011;30134;47.866;-4.222;2023-04-06T07:50:10;2.67;;;1.65;;
44428;SDS011;30134;47.866;-4.222;2023-04-06T07:52:38;4.30;;;2.00;;
44428;SDS011;30134;47.866;-4.222;2023-04-06T07:55:05;3.55;;;1.83;;
44428;SDS011;30134;47.866;-4.222;2023-04-06T07:57:31;3.80;;;1.80;;
44428;SDS011;30134;47.866;-4.222;2023-04-06T07:59:57;5.53;;;2.15;;
44428;SDS011;30134;47.866;-4.222;2023-04-06T08:02:23;4.75;;;1.50;;
44428;SDS011;30134;47.866;-4.222;2023-04-06T08:04:49;3.05;;;1.50;;
44428;SDS011;30134;47.866;-4.222;2023-04-06T08:07:15;4.80;;;2.20;;
44428;SDS011;30134;47.866;-4.222;2023-04-06T08:09:42;2.30;;;1.50;;
44428;SDS011;30134;47.866;-4.222;2023-04-06T08:12:08;4.28;;;1.50;;
44428;SDS011;30134;47.866;-4.222;2023-04-06T08:14:34;3.05;;;1.65;;
44428;SDS011;30134;47.866;-4.222;2023-04-06T08:17:00;2.92;;;1.73;;
44428;SDS011;30134;47.866;-4.222;2023-04-06T08:19:26;4.65;;;1.80;;
44428;SDS011;30134;47.866;-4.222;2023-04-06T08:21:52;5.05;;;1.80;;
44428;SDS011;30134;47.866;-4.222;2023-04-06T08:24:18;2.03;;;1.38;;
44428;SDS011;30134;47.866;-4.222;2023-04-06T08:26:44;4.50;;;1.90;;
44428;SDS011;30134;47.866;-4.222;2023-04-06T08:29:10;2.72;;;1.55;;
44428;SDS011;30134;47.866;-4.222;2023-04-06T08:31:37;2.42;;;1.48;;
44428;SDS011;30134;47.866;-4.222;2023-04-06T08:34:03;3.13;;;1.52;;
44428;SDS011;30134;47.866;-4.222;2023-04-06T08:36:30;3.45;;;1.60;;
44428;SDS011;30134;47.866;-4.222;2023-04-06T08:38:56;2.35;;;1.40;;
44428;SDS011;30134;47.866;-4.222;2023-04-06T08:41:24;2.80;;;1.40;;
44428;SDS011;30134;47.866;-4.222;2023-04-06T08:43:57;5.35;;;1.55;;
44428;SDS011;30134;47.866;-4.222;2023-04-06T08:46:28;3.05;;;1.52;;
44428;SDS011;30134;47.866;-4.222;2023-04-06T08:48:58;1.88;;;1.40;;
44428;SDS011;30134;47.866;-4.222;2023-04-06T08:51:27;2.17;;;1.63;;
44428;SDS011;30134;47.866;-4.222;2023-04-06T08:53:55;5.25;;;1.80;;
44428;SDS011;30134;47.866;-4.222;2023-04-06T08:56:27;1.52;;;1.20;;
44428;SDS011;30134;47.866;-4.222;2023-04-06T08:58:53;2.80;;;1.70;;
44428;SDS011;30134;47.866;-4.222;2023-04-06T09:01:21;1.80;;;1.30;;
44428;SDS011;30134;47.866;-4.222;2023-04-06T09:06:22;2.00;;;1.50;;
44428;SDS011;30134;47.866;-4.222;2023-04-06T09:08:48;2.35;;;1.40;;
44428;SDS011;30134;47.866;-4.222;2023-04-06T09:11:14;2.60;;;1.50;;
44428;SDS011;30134;47.866;-4.222;2023-04-06T09:13:44;4.63;;;1.42;;
44428;SDS011;30134;47.866;-4.222;2023-04-06T09:16:11;2.63;;;1.40;;
44428;SDS011;30134;47.866;-4.222;2023-04-06T09:18:37;2.10;;;1.25;;
44428;SDS011;30134;47.866;-4.222;2023-04-06T09:21:05;2.53;;;1.65;;
44428;SDS011;30134;47.866;-4.222;2023-04-06T09:23:32;2.50;;;1.38;;
44428;SDS011;30134;47.866;-4.222;2023-04-06T09:26:15;3.33;;;1.75;;
44428;SDS011;30134;47.866;-4.222;2023-04-06T09:33:59;1.75;;;1.38;;
44428;SDS011;30134;47.866;-4.222;2023-04-06T09:36:34;2.00;;;1.48;;
44428;SDS011;30134;47.866;-4.222;2023-04-06T09:39:05;2.17;;;1.55;;
44428;SDS011;30134;47.866;-4.222;2023-04-06T09:41:33;2.30;;;1.50;;
44428;SDS011;30134;47.866;-4.222;2023-04-06T09:44:04;2.45;;;1.58;;
44428;SDS011;30134;47.866;-4.222;2023-04-06T09:46:35;1.42;;;1.33;;
44428;SDS011;30134;47.866;-4.222;2023-04-06T09:49:09;1.77;;;1.50;;
44428;SDS011;30134;47.866;-4.222;2023-04-06T09:51:46;2.40;;;1.63;;
44428;SDS011;30134;47.866;-4.222;2023-04-06T09:54:19;1.63;;;1.17;;
44428;SDS011;30134;47.866;-4.222;2023-04-06T10:02:30;2.42;;;1.50;;
44428;SDS011;30134;47.866;-4.222;2023-04-06T10:05:27;2.67;;;1.40;;
44428;SDS011;30134;47.866;-4.222;2023-04-06T10:08:02;2.17;;;1.38;;
44428;SDS011;30134;47.866;-4.222;2023-04-06T10:10:35;2.05;;;1.33;;
44428;SDS011;30134;47.866;-4.222;2023-04-06T10:13:02;2.63;;;1.65;;
44428;SDS011;30134;47.866;-4.222;2023-04-06T10:15:30;3.20;;;1.50;;
44428;SDS011;30134;47.866;-4.222;2023-04-06T10:18:00;1.58;;;1.33;;
44428;SDS011;30134;47.866;-4.222;2023-04-06T10:26:29;3.33;;;1.50;;
44428;SDS011;30134;47.866;-4.222;2023-04-06T10:29:01;3.20;;;1.23;;
44428;SDS011;30134;47.866;-4.222;2023-04-06T10:31:30;1.58;;;1.27;;
44428;SDS011;30134;47.866;-4.222;2023-04-06T10:33:57;2.35;;;1.27;;
44428;SDS011;30134;47.866;-4.222;2023-04-06T10:36:28;2.38;;;1.20;;
44428;SDS011;30134;47.866;-4.222;2023-04-06T10:38:59;3.28;;;1.35;;
44428;SDS011;30134;47.866;-4.222;2023-04-06T10:41:32;3.08;;;1.33;;
44428;SDS011;30134;47.866;-4.222;2023-04-06T10:44:00;2.22;;;1.42;;
44428;SDS011;30134;47.866;-4.222;2023-04-06T10:46:30;2.03;;;1.10;;
44428;SDS011;30134;47.866;-4.222;2023-04-06T10:49:11;1.95;;;1.10;;
44428;SDS011;30134;47.866;-4.222;2023-04-06T10:51:38;1.48;;;1.10;;
44428;SDS011;30134;47.866;-4.222;2023-04-06T10:54:05;2.30;;;1.25;;
44428;SDS011;30134;47.866;-4.222;2023-04-06T10:56:32;2.38;;;1.52;;
44428;SDS011;30134;47.866;-4.222;2023-04-06T10:59:01;1.55;;;1.00;;
44428;SDS011;30134;47.866;-4.222;2023-04-06T11:01:28;2.05;;;1.27;;
44428;SDS011;30134;47.866;-4.222;2023-04-06T11:03:54;2.15;;;1.20;;
44428;SDS011;30134;47.866;-4.222;2023-04-06T11:06:25;2.17;;;1.20;;
44428;SDS011;30134;47.866;-4.222;2023-04-06T11:08:54;2.22;;;1.20;;
44428;SDS011;30134;47.866;-4.222;2023-04-06T11:11:22;2.10;;;1.20;;
44428;SDS011;30134;47.866;-4.222;2023-04-06T11:13:55;2.20;;;1.02;;
44428;SDS011;30134;47.866;-4.222;2023-04-06T11:18:58;2.83;;;1.60;;
44428;SDS011;30134;47.866;-4.222;2023-04-06T11:21:39;2.78;;;1.55;;
44428;SDS011;30134;47.866;-4.222;2023-04-06T11:24:22;4.13;;;1.80;;
44428;SDS011;30134;47.866;-4.222;2023-04-06T11:32:03;3.03;;;1.80;;
44428;SDS011;30134;47.866;-4.222;2023-04-06T11:34:35;4.50;;;2.47;;
44428;SDS011;30134;47.866;-4.222;2023-04-06T11:37:12;4.05;;;2.38;;
44428;SDS011;30134;47.866;-4.222;2023-04-06T11:39:39;3.92;;;2.25;;
44428;SDS011;30134;47.866;-4.222;2023-04-06T11:42:28;4.80;;;2.45;;
44428;SDS011;30134;47.866;-4.222;2023-04-06T11:44:55;3.97;;;2.22;;
44428;SDS011;30134;47.866;-4.222;2023-04-06T11:47:32;4.32;;;2.35;;
44428;SDS011;30134;47.866;-4.222;2023-04-06T11:50:07;4.35;;;2.70;;
44428;SDS011;30134;47.866;-4.222;2023-04-06T11:52:38;4.15;;;2.45;;
44428;SDS011;30134;47.866;-4.222;2023-04-06T11:55:15;4.78;;;2.20;;
44428;SDS011;30134;47.866;-4.222;2023-04-06T11:57:44;3.63;;;2.40;;
44428;SDS011;30134;47.866;-4.222;2023-04-06T12:00:13;5.13;;;2.67;;
44428;SDS011;30134;47.866;-4.222;2023-04-06T12:02:44;4.43;;;2.22;;
44428;SDS011;30134;47.866;-4.222;2023-04-06T12:05:12;7.00;;;2.33;;
44428;SDS011;30134;47.866;-4.222;2023-04-06T12:07:38;3.05;;;2.00;;
44428;SDS011;30134;47.866;-4.222;2023-04-06T12:10:04;5.95;;;2.58;;
44428;SDS011;30134;47.866;-4.222;2023-04-06T12:12:31;4.20;;;2.45;;
44428;SDS011;30134;47.866;-4.222;2023-04-06T12:14:57;3.42;;;2.50;;
44428;SDS011;30134;47.866;-4.222;2023-04-06T12:17:24;3.70;;;2.30;;
44428;SDS011;30134;47.866;-4.222;2023-04-06T12:19:50;6.22;;;2.40;;
44428;SDS011;30134;47.866;-4.222;2023-04-06T12:22:17;3.55;;;2.00;;
44428;SDS011;30134;47.866;-4.222;2023-04-06T12:24:43;3.65;;;2.08;;
44428;SDS011;30134;47.866;-4.222;2023-04-06T12:27:09;5.88;;;2.35;;
44428;SDS011;30134;47.866;-4.222;2023-04-06T12:29:37;4.10;;;2.33;;
44428;SDS011;30134;47.866;-4.222;2023-04-06T12:32:03;4.90;;;2.47;;
44428;SDS011;30134;47.866;-4.222;2023-04-06T12:34:30;4.30;;;2.40;;
44428;SDS011;30134;47.866;-4.222;2023-04-06T12:36:56;4.32;;;2.50;;
44428;SDS011;30134;47.866;-4.222;2023-04-06T12:39:22;3.67;;;2.25;;
44428;SDS011;30134;47.866;-4.222;2023-04-06T12:41:49;4.78;;;2.10;;
44428;SDS011;30134;47.866;-4.222;2023-04-06T12:44:15;3.17;;;1.95;;
44428;SDS011;30134;47.866;-4.222;2023-04-06T12:46:41;4.18;;;2.10;;
44428;SDS011;30134;47.866;-4.222;2023-04-06T12:49:08;4.47;;;2.38;;
44428;SDS011;30134;47.866;-4.222;2023-04-06T12:51:35;5.38;;;2.50;;
44428;SDS011;30134;47.866;-4.222;2023-04-06T12:54:01;5.03;;;2.15;;
44428;SDS011;30134;47.866;-4.222;2023-04-06T12:56:27;4.20;;;1.90;;
44428;SDS011;30134;47.866;-4.222;2023-04-06T12:58:53;4.05;;;1.83;;
44428;SDS011;30134;47.866;-4.222;2023-04-06T13:01:20;4.05;;;2.08;;
44428;SDS011;30134;47.866;-4.222;2023-04-06T13:03:46;5.00;;;2.15;;
44428;SDS011;30134;47.866;-4.222;2023-04-06T13:06:13;4.40;;;2.03;;
44428;SDS011;30134;47.866;-4.222;2023-04-06T13:08:40;3.45;;;1.95;;
44428;SDS011;30134;47.866;-4.222;2023-04-06T13:11:07;4.85;;;1.88;;
44428;SDS011;30134;47.866;-4.222;2023-04-06T13:13:34;4.32;;;2.00;;
44428;SDS011;30134;47.866;-4.222;2023-04-06T13:16:01;4.05;;;1.98;;
44428;SDS011;30134;47.866;-4.222;2023-04-06T13:18:30;3.78;;;1.80;;
44428;SDS011;30134;47.866;-4.222;2023-04-06T13:20:57;3.05;;;1.63;;
44428;SDS011;30134;47.866;-4.222;2023-04-06T13:23:24;5.43;;;2.10;;
44428;SDS011;30134;47.866;-4.222;2023-04-06T13:25:58;3.55;;;1.67;;
44428;SDS011;30134;47.866;-4.222;2023-04-06T13:28:30;2.90;;;1.52;;
44428;SDS011;30134;47.866;-4.222;2023-04-06T13:31:00;3.13;;;1.80;;
44428;SDS011;30134;47.866;-4.222;2023-04-06T13:33:30;3.58;;;1.75;;
44428;SDS011;30134;47.866;-4.222;2023-04-06T13:35:56;4.15;;;1.90;;
44428;SDS011;30134;47.866;-4.222;2023-04-06T13:38:23;3.55;;;1.75;;
44428;SDS011;30134;47.866;-4.222;2023-04-06T13:40:49;5.18;;;2.13;;
44428;SDS011;30134;47.866;-4.222;2023-04-06T13:43:15;6.28;;;2.33;;
44428;SDS011;30134;47.866;-4.222;2023-04-06T13:45:48;10.90;;;2.42;;
44428;SDS011;30134;47.866;-4.222;2023-04-06T13:48:16;5.05;;;1.75;;
44428;SDS011;30134;47.866;-4.222;2023-04-06T13:50:44;4.47;;;2.00;;
44428;SDS011;30134;47.866;-4.222;2023-04-06T13:53:11;8.32;;;2.13;;
44428;SDS011;30134;47.866;-4.222;2023-04-06T13:55:37;4.80;;;1.70;;
44428;SDS011;30134;47.866;-4.222;2023-04-06T13:58:03;5.80;;;2.00;;
44428;SDS011;30134;47.866;-4.222;2023-04-06T14:00:29;6.20;;;2.08;;
44428;SDS011;30134;47.866;-4.222;2023-04-06T14:02:55;6.70;;;2.22;;
44428;SDS011;30134;47.866;-4.222;2023-04-06T14:05:22;6.60;;;1.67;;
44428;SDS011;30134;47.866;-4.222;2023-04-06T14:07:49;8.05;;;1.98;;
44428;SDS011;30134;47.866;-4.222;2023-04-06T14:10:15;6.40;;;2.25;;
44428;SDS011;30134;47.866;-4.222;2023-04-06T14:12:43;4.30;;;1.90;;
44428;SDS011;30134;47.866;-4.222;2023-04-06T14:15:10;4.53;;;2.00;;
44428;SDS011;30134;47.866;-4.222;2023-04-06T14:17:37;5.60;;;2.22;;
44428;SDS011;30134;47.866;-4.222;2023-04-06T14:20:06;4.88;;;2.00;;
44428;SDS011;30134;47.866;-4.222;2023-04-06T14:22:39;6.38;;;2.17;;
44428;SDS011;30134;47.866;-4.222;2023-04-06T14:25:07;7.07;;;2.40;;
44428;SDS011;30134;47.866;-4.222;2023-04-06T14:27:36;4.43;;;1.92;;
44428;SDS011;30134;47.866;-4.222;2023-04-06T14:30:02;8.50;;;2.17;;
44428;SDS011;30134;47.866;-4.222;2023-04-06T14:32:28;4.68;;;2.13;;
44428;SDS011;30134;47.866;-4.222;2023-04-06T14:34:54;5.55;;;1.77;;
44428;SDS011;30134;47.866;-4.222;2023-04-06T14:37:20;6.10;;;2.10;;
44428;SDS011;30134;47.866;-4.222;2023-04-06T14:39:47;6.28;;;2.25;;
44428;SDS011;30134;47.866;-4.222;2023-04-06T14:42:13;4.35;;;2.22;;
44428;SDS011;30134;47.866;-4.222;2023-04-06T14:44:39;6.53;;;1.80;;
44428;SDS011;30134;47.866;-4.222;2023-04-06T14:47:08;5.50;;;1.90;;
44428;SDS011;30134;47.866;-4.222;2023-04-06T14:49:35;4.85;;;2.10;;
44428;SDS011;30134;47.866;-4.222;2023-04-06T14:52:01;5.03;;;2.13;;
44428;SDS011;30134;47.866;-4.222;2023-04-06T14:54:27;7.32;;;1.70;;
44428;SDS011;30134;47.866;-4.222;2023-04-06T14:56:54;4.88;;;2.10;;
44428;SDS011;30134;47.866;-4.222;2023-04-06T14:59:20;4.70;;;2.05;;
44428;SDS011;30134;47.866;-4.222;2023-04-06T15:01:46;7.88;;;1.88;;